Watertown, SD

1:18 AM CDT on August 29, 2014 (GMT -0500)
East side of Watertown, SD | Change Station
CLOSE
Current Station
Personal Weather Station
Location: Watertown, SD
Elevation: 1732 ft
Nearby Weather Stations

Elev 1732 ft 44.89 °N, 97.09 °W | Updated 2 minutes ago

Overcast
Overcast
66.4 °F
Feels Like 66.4 °F
N
1.1
Wind Variable Wind from NNE

Today
High -- | Low -- °F
--% Chance of Precip.
Yesterday
High -- | Low -- °F
Precip. -- in
6:47 AM 8:10 PM
Waxing Crescent, 12% visible
Pressure 29.82 in
Visibility 7.0 miles
Clouds Mostly Cloudy 600 ft
Overcast 1200 ft
Dew Point 66 °F
Humidity 99%
Rainfall 0.00 in
Snow Depth Not available.
UV 0 out of 12
Pollen 8.80 out of 12
Air Quality Not available.
Flu Activity Not available.
SPECI KATY 290614Z AUTO 13005KT 7SM BKN006 OVC012 19/19 A2982 RMK AO2 RAB0554E03 P0000 T01890189

More Conditions Fewer Conditions

Pressure 29.82 in
Visibility 7.0 miles
Clouds Mostly Cloudy 600 ft
Overcast 1200 ft
Dew Point 66 °F
Humidity 99%
Rainfall 0.00 in
Snow Depth Not available.
UV 0 out of 12
Pollen 8.80 out of 12
Air Quality Not available.
Flu Activity Not available.
SPECI KATY 290614Z AUTO 13005KT 7SM BKN006 OVC012 19/19 A2982 RMK AO2 RAB0554E03 P0000 T01890189

More Conditions Fewer Conditions

10-Day Weather Forecast

Almanac

Astronomy

Aug. 29, 2014 Rise Set
Actual Time 6:47 AM CDT 8:10 PM CDT
Civil Twilight 6:16 AM CDT 8:41 PM CDT
Nautical Twilight 5:39 AM CDT 9:17 PM CDT
Astronomical Twilight 5:00 AM CDT 9:56 PM CDT
Moon 10:49 AM CDT 9:56 PM CDT
Length of Visible Light 14h 24m
Length of Day
13h 23m
Tomorrow will be 2m 59s shorter.
Waxing Crescent, 12% of the Moon is Illuminated
Today
Waxing Crescent
Sep 2
First Quarter
Sep 8
Full
Sep 15
Last Quarter
Sep 24
New

Today's Extremes

State Highs State Lows

Community

WunderPhotos

Upload Photos

1,748,197 photos uploaded!

Nearby

Snow Depth

Station Depth Elevation
Blind Park 0 in 6890 ft

Earthquake Activity

City Distance Mag. Time & Date
No recent earthquake activity has been reported nearby.
Minimum magnitude displayed is 2.5.

Coastal Water Temperatures

Place Temperature
No Stations Reporting

Nearby Weather Stations